sensor_id;sensor_type;location;lat;lon;timestamp;temperature;humidity
67598;DHT22;62026;39.230;9.122;2022-08-01T00:01:13;29.10;58.90
67598;DHT22;62026;39.230;9.122;2022-08-01T00:03:39;29.10;58.80
67598;DHT22;62026;39.230;9.122;2022-08-01T00:06:05;29.10;58.90
67598;DHT22;62026;39.230;9.122;2022-08-01T00:08:31;29.10;58.90
67598;DHT22;62026;39.230;9.122;2022-08-01T00:10:58;29.10;58.80
67598;DHT22;62026;39.230;9.122;2022-08-01T00:13:24;29.10;58.70
67598;DHT22;62026;39.230;9.122;2022-08-01T00:15:50;29.10;58.70
67598;DHT22;62026;39.230;9.122;2022-08-01T00:18:16;29.10;58.70
67598;DHT22;62026;39.230;9.122;2022-08-01T00:20:42;29.10;58.70
67598;DHT22;62026;39.230;9.122;2022-08-01T00:23:08;29.10;58.80
67598;DHT22;62026;39.230;9.122;2022-08-01T00:25:34;29.10;58.70
67598;DHT22;62026;39.230;9.122;2022-08-01T00:28:00;29.10;58.80
67598;DHT22;62026;39.230;9.122;2022-08-01T00:30:27;29.10;58.70
67598;DHT22;62026;39.230;9.122;2022-08-01T00:32:53;29.10;58.60
67598;DHT22;62026;39.230;9.122;2022-08-01T00:35:19;29.10;58.70
67598;DHT22;62026;39.230;9.122;2022-08-01T00:37:45;29.10;58.70
67598;DHT22;62026;39.230;9.122;2022-08-01T00:40:11;29.10;58.80
67598;DHT22;62026;39.230;9.122;2022-08-01T00:42:37;29.00;58.80
67598;DHT22;62026;39.230;9.122;2022-08-01T00:45:04;29.00;58.80
67598;DHT22;62026;39.230;9.122;2022-08-01T00:47:30;29.00;58.90
67598;DHT22;62026;39.230;9.122;2022-08-01T00:49:56;29.00;58.90
67598;DHT22;62026;39.230;9.122;2022-08-01T00:52:23;29.00;58.90
67598;DHT22;62026;39.230;9.122;2022-08-01T00:54:49;29.00;59.00
67598;DHT22;62026;39.230;9.122;2022-08-01T00:57:15;29.00;59.00
67598;DHT22;62026;39.230;9.122;2022-08-01T00:59:42;29.00;59.00
67598;DHT22;62026;39.230;9.122;2022-08-01T01:02:08;29.00;59.00
67598;DHT22;62026;39.230;9.122;2022-08-01T01:04:34;29.00;58.90
67598;DHT22;62026;39.230;9.122;2022-08-01T01:14:21;28.90;58.90
67598;DHT22;62026;39.230;9.122;2022-08-01T01:16:20;28.90;58.90
67598;DHT22;62026;39.230;9.122;2022-08-01T01:18:51;28.90;58.90
67598;DHT22;62026;39.230;9.122;2022-08-01T01:26:40;28.90;58.60
67598;DHT22;62026;39.230;9.122;2022-08-01T01:29:25;28.80;58.40
67598;DHT22;62026;39.230;9.122;2022-08-01T01:32:02;28.80;58.20
67598;DHT22;62026;39.230;9.122;2022-08-01T01:34:37;28.80;57.80
67598;DHT22;62026;39.230;9.122;2022-08-01T01:37:09;28.80;57.50
67598;DHT22;62026;39.230;9.122;2022-08-01T01:39:40;28.80;57.30
67598;DHT22;62026;39.230;9.122;2022-08-01T01:42:09;28.80;57.00
67598;DHT22;62026;39.230;9.122;2022-08-01T01:44:37;28.70;56.60
67598;DHT22;62026;39.230;9.122;2022-08-01T01:47:04;28.70;56.30
67598;DHT22;62026;39.230;9.122;2022-08-01T01:49:32;28.70;56.00
67598;DHT22;62026;39.230;9.122;2022-08-01T01:52:00;28.70;55.80
67598;DHT22;62026;39.230;9.122;2022-08-01T01:54:42;28.70;55.70
67598;DHT22;62026;39.230;9.122;2022-08-01T01:57:12;28.70;55.60
67598;DHT22;62026;39.230;9.122;2022-08-01T01:59:41;28.70;55.40
67598;DHT22;62026;39.230;9.122;2022-08-01T02:02:09;28.60;55.30
67598;DHT22;62026;39.230;9.122;2022-08-01T02:04:40;28.60;55.10
67598;DHT22;62026;39.230;9.122;2022-08-01T02:07:13;28.60;54.90
67598;DHT22;62026;39.230;9.122;2022-08-01T02:09:43;28.60;54.70
67598;DHT22;62026;39.230;9.122;2022-08-01T02:12:12;28.60;54.60
67598;DHT22;62026;39.230;9.122;2022-08-01T02:14:39;28.60;54.50
67598;DHT22;62026;39.230;9.122;2022-08-01T02:17:08;28.50;54.40
67598;DHT22;62026;39.230;9.122;2022-08-01T02:19:37;28.50;54.30
67598;DHT22;62026;39.230;9.122;2022-08-01T02:22:42;28.50;54.10
67598;DHT22;62026;39.230;9.122;2022-08-01T02:25:48;28.50;54.10
67598;DHT22;62026;39.230;9.122;2022-08-01T02:28:21;28.50;54.20
67598;DHT22;62026;39.230;9.122;2022-08-01T02:30:56;28.50;54.10
67598;DHT22;62026;39.230;9.122;2022-08-01T02:33:34;28.50;54.10
67598;DHT22;62026;39.230;9.122;2022-08-01T02:36:07;28.50;54.00
67598;DHT22;62026;39.230;9.122;2022-08-01T02:38:36;28.40;53.80
67598;DHT22;62026;39.230;9.122;2022-08-01T02:41:08;28.40;53.60
67598;DHT22;62026;39.230;9.122;2022-08-01T02:43:45;28.40;53.40
67598;DHT22;62026;39.230;9.122;2022-08-01T02:46:21;28.40;53.30
67598;DHT22;62026;39.230;9.122;2022-08-01T02:48:55;28.40;53.10
67598;DHT22;62026;39.230;9.122;2022-08-01T02:51:24;28.40;52.90
67598;DHT22;62026;39.230;9.122;2022-08-01T02:53:53;28.40;52.80
67598;DHT22;62026;39.230;9.122;2022-08-01T02:56:21;28.30;53.00
67598;DHT22;62026;39.230;9.122;2022-08-01T02:58:51;28.30;53.10
67598;DHT22;62026;39.230;9.122;2022-08-01T03:01:18;28.40;53.00
67598;DHT22;62026;39.230;9.122;2022-08-01T03:03:46;28.30;52.90
67598;DHT22;62026;39.230;9.122;2022-08-01T03:06:13;28.30;53.00
67598;DHT22;62026;39.230;9.122;2022-08-01T03:08:41;28.30;53.00
67598;DHT22;62026;39.230;9.122;2022-08-01T03:11:10;28.30;53.00
67598;DHT22;62026;39.230;9.122;2022-08-01T03:13:38;28.30;53.10
67598;DHT22;62026;39.230;9.122;2022-08-01T03:16:08;28.30;53.20
67598;DHT22;62026;39.230;9.122;2022-08-01T03:18:37;28.30;53.30
67598;DHT22;62026;39.230;9.122;2022-08-01T03:21:06;28.30;53.40
67598;DHT22;62026;39.230;9.122;2022-08-01T03:23:36;28.30;53.40
67598;DHT22;62026;39.230;9.122;2022-08-01T03:26:04;28.30;53.30
67598;DHT22;62026;39.230;9.122;2022-08-01T03:28:31;28.30;53.40
67598;DHT22;62026;39.230;9.122;2022-08-01T03:30:59;28.30;53.40
67598;DHT22;62026;39.230;9.122;2022-08-01T03:33:26;28.30;53.40
67598;DHT22;62026;39.230;9.122;2022-08-01T03:35:54;28.20;53.50
67598;DHT22;62026;39.230;9.122;2022-08-01T03:38:24;28.20;53.60
67598;DHT22;62026;39.230;9.122;2022-08-01T03:40:55;28.20;53.90
67598;DHT22;62026;39.230;9.122;2022-08-01T03:43:32;28.20;54.10
67598;DHT22;62026;39.230;9.122;2022-08-01T03:46:07;28.20;54.30
67598;DHT22;62026;39.230;9.122;2022-08-01T03:48:40;28.20;54.30
67598;DHT22;62026;39.230;9.122;2022-08-01T03:51:13;28.20;54.40
67598;DHT22;62026;39.230;9.122;2022-08-01T03:53:42;28.20;54.30
67598;DHT22;62026;39.230;9.122;2022-08-01T03:56:13;28.10;54.20
67598;DHT22;62026;39.230;9.122;2022-08-01T03:58:44;28.10;54.00
67598;DHT22;62026;39.230;9.122;2022-08-01T04:01:11;28.10;53.90
67598;DHT22;62026;39.230;9.122;2022-08-01T04:03:38;28.00;54.00
67598;DHT22;62026;39.230;9.122;2022-08-01T04:06:06;28.00;53.90
67598;DHT22;62026;39.230;9.122;2022-08-01T04:08:35;28.00;53.90
67598;DHT22;62026;39.230;9.122;2022-08-01T04:11:02;28.00;53.80
67598;DHT22;62026;39.230;9.122;2022-08-01T04:13:28;28.00;53.80
67598;DHT22;62026;39.230;9.122;2022-08-01T04:15:55;28.00;53.90
67598;DHT22;62026;39.230;9.122;2022-08-01T04:18:21;28.00;53.90
67598;DHT22;62026;39.230;9.122;2022-08-01T04:20:47;28.00;54.10
67598;DHT22;62026;39.230;9.122;2022-08-01T04:23:16;28.00;54.40
67598;DHT22;62026;39.230;9.122;2022-08-01T04:25:46;28.00;54.70
67598;DHT22;62026;39.230;9.122;2022-08-01T04:28:16;27.90;54.90
67598;DHT22;62026;39.230;9.122;2022-08-01T04:30:44;27.90;55.30
67598;DHT22;62026;39.230;9.122;2022-08-01T04:33:14;27.90;55.50
67598;DHT22;62026;39.230;9.122;2022-08-01T04:35:45;27.90;55.60
67598;DHT22;62026;39.230;9.122;2022-08-01T04:38:17;27.90;55.70
67598;DHT22;62026;39.230;9.122;2022-08-01T04:40:47;27.90;55.80
67598;DHT22;62026;39.230;9.122;2022-08-01T04:43:16;27.90;55.90
67598;DHT22;62026;39.230;9.122;2022-08-01T04:45:43;27.80;56.00
67598;DHT22;62026;39.230;9.122;2022-08-01T04:48:11;27.90;56.00
67598;DHT22;62026;39.230;9.122;2022-08-01T04:50:41;27.80;56.00
67598;DHT22;62026;39.230;9.122;2022-08-01T04:53:13;27.80;56.00
67598;DHT22;62026;39.230;9.122;2022-08-01T04:55:43;27.80;56.10
67598;DHT22;62026;39.230;9.122;2022-08-01T04:58:10;27.80;56.10
67598;DHT22;62026;39.230;9.122;2022-08-01T05:00:37;27.80;56.00
67598;DHT22;62026;39.230;9.122;2022-08-01T05:03:04;27.80;55.90
67598;DHT22;62026;39.230;9.122;2022-08-01T05:05:30;27.80;55.90
67598;DHT22;62026;39.230;9.122;2022-08-01T05:07:57;27.80;55.90
67598;DHT22;62026;39.230;9.122;2022-08-01T05:10:23;27.80;55.70
67598;DHT22;62026;39.230;9.122;2022-08-01T05:12:49;27.80;55.60
67598;DHT22;62026;39.230;9.122;2022-08-01T05:15:16;27.80;55.40
67598;DHT22;62026;39.230;9.122;2022-08-01T05:17:42;27.80;55.20
67598;DHT22;62026;39.230;9.122;2022-08-01T05:20:08;27.80;55.10
67598;DHT22;62026;39.230;9.122;2022-08-01T05:22:35;27.90;55.00
67598;DHT22;62026;39.230;9.122;2022-08-01T05:25:02;27.90;54.90
67598;DHT22;62026;39.230;9.122;2022-08-01T05:27:31;27.90;54.80
67598;DHT22;62026;39.230;9.122;2022-08-01T05:29:57;28.00;54.60
67598;DHT22;62026;39.230;9.122;2022-08-01T05:32:23;28.00;54.60
67598;DHT22;62026;39.230;9.122;2022-08-01T05:34:49;28.00;54.50
67598;DHT22;62026;39.230;9.122;2022-08-01T05:37:15;28.00;54.40
67598;DHT22;62026;39.230;9.122;2022-08-01T05:39:41;28.00;54.10
67598;DHT22;62026;39.230;9.122;2022-08-01T05:42:07;28.10;54.00
67598;DHT22;62026;39.230;9.122;2022-08-01T05:44:33;28.10;53.90
67598;DHT22;62026;39.230;9.122;2022-08-01T05:46:59;28.10;53.80
67598;DHT22;62026;39.230;9.122;2022-08-01T05:49:25;28.10;53.50
67598;DHT22;62026;39.230;9.122;2022-08-01T05:51:51;28.20;53.30
67598;DHT22;62026;39.230;9.122;2022-08-01T05:54:18;28.20;52.80
67598;DHT22;62026;39.230;9.122;2022-08-01T05:56:44;28.30;52.60
67598;DHT22;62026;39.230;9.122;2022-08-01T05:59:10;28.30;52.30
67598;DHT22;62026;39.230;9.122;2022-08-01T06:01:36;28.30;52.20
67598;DHT22;62026;39.230;9.122;2022-08-01T06:04:02;28.40;52.10
67598;DHT22;62026;39.230;9.122;2022-08-01T06:06:28;28.60;52.00
67598;DHT22;62026;39.230;9.122;2022-08-01T06:08:54;28.60;51.60
67598;DHT22;62026;39.230;9.122;2022-08-01T06:11:20;28.60;51.90
67598;DHT22;62026;39.230;9.122;2022-08-01T06:13:46;28.70;51.80
67598;DHT22;62026;39.230;9.122;2022-08-01T06:16:13;28.80;51.80
67598;DHT22;62026;39.230;9.122;2022-08-01T06:18:39;28.90;51.80
67598;DHT22;62026;39.230;9.122;2022-08-01T06:21:05;28.90;51.60
67598;DHT22;62026;39.230;9.122;2022-08-01T06:23:31;29.00;51.50
67598;DHT22;62026;39.230;9.122;2022-08-01T06:25:57;29.00;51.40
67598;DHT22;62026;39.230;9.122;2022-08-01T06:28:24;29.10;51.40
67598;DHT22;62026;39.230;9.122;2022-08-01T06:30:50;29.00;51.40
67598;DHT22;62026;39.230;9.122;2022-08-01T06:33:16;28.80;51.50
67598;DHT22;62026;39.230;9.122;2022-08-01T06:35:42;28.80;51.80
67598;DHT22;62026;39.230;9.122;2022-08-01T06:38:09;28.80;52.10
67598;DHT22;62026;39.230;9.122;2022-08-01T06:40:35;28.80;52.40
67598;DHT22;62026;39.230;9.122;2022-08-01T06:43:01;28.70;52.80
67598;DHT22;62026;39.230;9.122;2022-08-01T06:45:27;28.70;53.00
67598;DHT22;62026;39.230;9.122;2022-08-01T06:47:53;28.80;53.00
67598;DHT22;62026;39.230;9.122;2022-08-01T06:50:19;28.80;53.10
67598;DHT22;62026;39.230;9.122;2022-08-01T06:52:45;28.80;53.40
67598;DHT22;62026;39.230;9.122;2022-08-01T06:55:11;28.80;53.60
67598;DHT22;62026;39.230;9.122;2022-08-01T06:57:46;28.80;53.60
67598;DHT22;62026;39.230;9.122;2022-08-01T07:00:16;28.90;53.60
67598;DHT22;62026;39.230;9.122;2022-08-01T07:02:46;28.90;53.50
67598;DHT22;62026;39.230;9.122;2022-08-01T07:05:13;28.90;53.50
67598;DHT22;62026;39.230;9.122;2022-08-01T07:07:39;28.80;53.50
67598;DHT22;62026;39.230;9.122;2022-08-01T07:10:05;28.80;53.30
67598;DHT22;62026;39.230;9.122;2022-08-01T07:12:32;28.80;53.40
67598;DHT22;62026;39.230;9.122;2022-08-01T07:14:58;28.90;53.20
67598;DHT22;62026;39.230;9.122;2022-08-01T07:17:24;29.00;53.30
67598;DHT22;62026;39.230;9.122;2022-08-01T07:19:50;29.00;53.20
67598;DHT22;62026;39.230;9.122;2022-08-01T07:22:16;29.00;53.30
67598;DHT22;62026;39.230;9.122;2022-08-01T07:24:42;29.10;53.60
67598;DHT22;62026;39.230;9.122;2022-08-01T07:27:09;29.40;53.40
67598;DHT22;62026;39.230;9.122;2022-08-01T07:29:35;29.80;53.00
67598;DHT22;62026;39.230;9.122;2022-08-01T07:32:01;29.90;52.80
67598;DHT22;62026;39.230;9.122;2022-08-01T07:34:27;29.90;52.80
67598;DHT22;62026;39.230;9.122;2022-08-01T07:36:53;30.10;52.60
67598;DHT22;62026;39.230;9.122;2022-08-01T07:39:19;30.20;51.90
67598;DHT22;62026;39.230;9.122;2022-08-01T07:41:45;30.30;51.70
67598;DHT22;62026;39.230;9.122;2022-08-01T07:44:12;30.40;51.50
67598;DHT22;62026;39.230;9.122;2022-08-01T07:46:38;30.40;51.30
67598;DHT22;62026;39.230;9.122;2022-08-01T07:49:04;30.60;50.80
67598;DHT22;62026;39.230;9.122;2022-08-01T07:51:30;30.80;50.60
67598;DHT22;62026;39.230;9.122;2022-08-01T07:53:56;30.80;50.10
67598;DHT22;62026;39.230;9.122;2022-08-01T07:56:22;30.80;49.70
67598;DHT22;62026;39.230;9.122;2022-08-01T07:58:50;31.00;49.30
67598;DHT22;62026;39.230;9.122;2022-08-01T08:01:16;31.10;48.90
67598;DHT22;62026;39.230;9.122;2022-08-01T08:03:43;31.10;49.20
67598;DHT22;62026;39.230;9.122;2022-08-01T08:06:09;31.30;49.00
67598;DHT22;62026;39.230;9.122;2022-08-01T08:08:35;31.40;48.90
67598;DHT22;62026;39.230;9.122;2022-08-01T08:11:01;31.40;48.80
67598;DHT22;62026;39.230;9.122;2022-08-01T08:13:27;31.50;48.70
67598;DHT22;62026;39.230;9.122;2022-08-01T08:15:53;31.40;48.90
67598;DHT22;62026;39.230;9.122;2022-08-01T08:18:20;31.50;48.60
67598;DHT22;62026;39.230;9.122;2022-08-01T08:20:46;31.50;49.00
67598;DHT22;62026;39.230;9.122;2022-08-01T08:23:12;31.60;49.00
67598;DHT22;62026;39.230;9.122;2022-08-01T08:25:58;31.60;49.20
67598;DHT22;62026;39.230;9.122;2022-08-01T08:28:25;31.60;49.70
67598;DHT22;62026;39.230;9.122;2022-08-01T08:30:51;31.70;49.90
67598;DHT22;62026;39.230;9.122;2022-08-01T08:33:18;31.20;50.80
67598;DHT22;62026;39.230;9.122;2022-08-01T08:35:44;31.20;50.90
67598;DHT22;62026;39.230;9.122;2022-08-01T08:38:10;31.60;50.60
67598;DHT22;62026;39.230;9.122;2022-08-01T08:40:37;31.60;50.60
67598;DHT22;62026;39.230;9.122;2022-08-01T08:43:05;31.20;51.30
67598;DHT22;62026;39.230;9.122;2022-08-01T08:45:32;31.10;51.60
67598;DHT22;62026;39.230;9.122;2022-08-01T08:47:59;31.40;51.30
67598;DHT22;62026;39.230;9.122;2022-08-01T08:50:26;31.80;50.60
67598;DHT22;62026;39.230;9.122;2022-08-01T08:52:54;31.40;50.40
67598;DHT22;62026;39.230;9.122;2022-08-01T08:55:23;31.30;50.80
67598;DHT22;62026;39.230;9.122;2022-08-01T08:57:50;31.20;51.10
67598;DHT22;62026;39.230;9.122;2022-08-01T09:00:18;31.20;51.50
67598;DHT22;62026;39.230;9.122;2022-08-01T09:02:46;31.10;52.00
67598;DHT22;62026;39.230;9.122;2022-08-01T09:05:15;31.10;52.40
67598;DHT22;62026;39.230;9.122;2022-08-01T09:07:42;31.00;52.90
67598;DHT22;62026;39.230;9.122;2022-08-01T09:10:08;31.00;53.40
67598;DHT22;62026;39.230;9.122;2022-08-01T09:12:37;31.10;53.80
67598;DHT22;62026;39.230;9.122;2022-08-01T09:15:03;31.00;54.40
67598;DHT22;62026;39.230;9.122;2022-08-01T09:17:39;31.00;54.80
67598;DHT22;62026;39.230;9.122;2022-08-01T09:20:07;31.00;55.20
67598;DHT22;62026;39.230;9.122;2022-08-01T09:22:47;31.00;55.00
67598;DHT22;62026;39.230;9.122;2022-08-01T09:25:13;31.00;55.50
67598;DHT22;62026;39.230;9.122;2022-08-01T09:27:39;31.00;56.00
67598;DHT22;62026;39.230;9.122;2022-08-01T09:30:15;31.00;56.40
67598;DHT22;62026;39.230;9.122;2022-08-01T09:32:59;31.00;56.40
67598;DHT22;62026;39.230;9.122;2022-08-01T09:35:34;30.90;56.90
67598;DHT22;62026;39.230;9.122;2022-08-01T09:38:12;30.90;57.20
67598;DHT22;62026;39.230;9.122;2022-08-01T09:40:54;31.00;57.20
67598;DHT22;62026;39.230;9.122;2022-08-01T09:43:24;31.10;57.50
67598;DHT22;62026;39.230;9.122;2022-08-01T09:45:51;30.90;57.60
67598;DHT22;62026;39.230;9.122;2022-08-01T09:48:19;31.00;57.70
67598;DHT22;62026;39.230;9.122;2022-08-01T09:50:48;31.10;57.00
67598;DHT22;62026;39.230;9.122;2022-08-01T09:53:17;31.20;56.20
67598;DHT22;62026;39.230;9.122;2022-08-01T09:55:45;31.20;55.80
67598;DHT22;62026;39.230;9.122;2022-08-01T09:58:11;31.20;55.10
67598;DHT22;62026;39.230;9.122;2022-08-01T10:00:39;31.10;54.60
67598;DHT22;62026;39.230;9.122;2022-08-01T10:03:23;31.10;54.80
67598;DHT22;62026;39.230;9.122;2022-08-01T10:05:51;31.10;54.50
67598;DHT22;62026;39.230;9.122;2022-08-01T10:08:19;31.20;54.40
67598;DHT22;62026;39.230;9.122;2022-08-01T10:11:09;31.20;54.40
67598;DHT22;62026;39.230;9.122;2022-08-01T10:13:37;31.20;54.70
67598;DHT22;62026;39.230;9.122;2022-08-01T10:16:05;31.10;54.80
67598;DHT22;62026;39.230;9.122;2022-08-01T10:18:34;31.00;53.90
67598;DHT22;62026;39.230;9.122;2022-08-01T10:21:02;31.00;54.10
67598;DHT22;62026;39.230;9.122;2022-08-01T10:23:38;31.00;54.90
67598;DHT22;62026;39.230;9.122;2022-08-01T10:26:08;30.90;55.30
67598;DHT22;62026;39.230;9.122;2022-08-01T10:28:36;31.00;55.10
67598;DHT22;62026;39.230;9.122;2022-08-01T10:31:04;31.10;55.60
67598;DHT22;62026;39.230;9.122;2022-08-01T10:33:32;31.10;56.10
67598;DHT22;62026;39.230;9.122;2022-08-01T10:36:02;31.00;56.00
67598;DHT22;62026;39.230;9.122;2022-08-01T10:38:29;31.10;55.40
67598;DHT22;62026;39.230;9.122;2022-08-01T10:40:57;31.20;54.80
67598;DHT22;62026;39.230;9.122;2022-08-01T10:43:27;31.00;54.90
67598;DHT22;62026;39.230;9.122;2022-08-01T10:45:54;30.80;56.30
67598;DHT22;62026;39.230;9.122;2022-08-01T10:48:38;30.90;56.20
67598;DHT22;62026;39.230;9.122;2022-08-01T10:51:17;31.00;56.40
67598;DHT22;62026;39.230;9.122;2022-08-01T10:53:52;31.00;56.40
67598;DHT22;62026;39.230;9.122;2022-08-01T10:56:22;30.80;56.30
67598;DHT22;62026;39.230;9.122;2022-08-01T10:59:01;30.70;56.70
67598;DHT22;62026;39.230;9.122;2022-08-01T11:01:30;30.70;57.20
67598;DHT22;62026;39.230;9.122;2022-08-01T11:09:39;30.50;57.10
67598;DHT22;62026;39.230;9.122;2022-08-01T11:12:16;30.40;56.80
67598;DHT22;62026;39.230;9.122;2022-08-01T11:17:32;30.60;56.70
67598;DHT22;62026;39.230;9.122;2022-08-01T11:30:44;30.60;57.90
67598;DHT22;62026;39.230;9.122;2022-08-01T11:33:14;30.60;58.20
67598;DHT22;62026;39.230;9.122;2022-08-01T11:38:49;30.30;58.70
67598;DHT22;62026;39.230;9.122;2022-08-01T11:41:23;30.20;58.80
67598;DHT22;62026;39.230;9.122;2022-08-01T11:49:29;30.40;59.00
67598;DHT22;62026;39.230;9.122;2022-08-01T12:05:44;31.00;58.50
67598;DHT22;62026;39.230;9.122;2022-08-01T12:08:10;30.70;58.70
67598;DHT22;62026;39.230;9.122;2022-08-01T12:10:36;30.80;58.50
67598;DHT22;62026;39.230;9.122;2022-08-01T12:13:05;30.80;58.20
67598;DHT22;62026;39.230;9.122;2022-08-01T12:15:36;30.80;58.40
67598;DHT22;62026;39.230;9.122;2022-08-01T12:18:05;30.90;57.00
67598;DHT22;62026;39.230;9.122;2022-08-01T12:20:34;30.70;58.10
67598;DHT22;62026;39.230;9.122;2022-08-01T12:23:05;30.80;58.40
67598;DHT22;62026;39.230;9.122;2022-08-01T12:25:34;30.90;58.10
67598;DHT22;62026;39.230;9.122;2022-08-01T12:28:04;31.10;57.50
67598;DHT22;62026;39.230;9.122;2022-08-01T12:30:32;30.80;57.60
67598;DHT22;62026;39.230;9.122;2022-08-01T12:33:04;30.70;57.90
67598;DHT22;62026;39.230;9.122;2022-08-01T12:35:32;30.70;58.30
67598;DHT22;62026;39.230;9.122;2022-08-01T12:38:04;30.80;58.30
67598;DHT22;62026;39.230;9.122;2022-08-01T12:40:43;30.90;57.70
67598;DHT22;62026;39.230;9.122;2022-08-01T12:43:10;30.90;57.20
67598;DHT22;62026;39.230;9.122;2022-08-01T12:45:43;30.90;57.30
67598;DHT22;62026;39.230;9.122;2022-08-01T12:48:15;30.70;57.60
67598;DHT22;62026;39.230;9.122;2022-08-01T12:50:45;30.90;57.30
67598;DHT22;62026;39.230;9.122;2022-08-01T12:53:14;30.90;57.10
67598;DHT22;62026;39.230;9.122;2022-08-01T12:55:45;30.80;57.00
67598;DHT22;62026;39.230;9.122;2022-08-01T12:58:14;30.80;57.10
67598;DHT22;62026;39.230;9.122;2022-08-01T13:00:43;30.70;57.70
67598;DHT22;62026;39.230;9.122;2022-08-01T13:03:13;30.90;57.10
67598;DHT22;62026;39.230;9.122;2022-08-01T13:05:45;30.90;56.80
67598;DHT22;62026;39.230;9.122;2022-08-01T13:08:16;30.90;56.90
67598;DHT22;62026;39.230;9.122;2022-08-01T13:10:43;30.90;56.70
67598;DHT22;62026;39.230;9.122;2022-08-01T13:13:10;30.70;57.20
67598;DHT22;62026;39.230;9.122;2022-08-01T13:15:40;30.50;57.50
67598;DHT22;62026;39.230;9.122;2022-08-01T13:21:08;30.60;57.90
67598;DHT22;62026;39.230;9.122;2022-08-01T13:23:34;30.50;57.80
67598;DHT22;62026;39.230;9.122;2022-08-01T13:26:01;30.50;57.50
67598;DHT22;62026;39.230;9.122;2022-08-01T13:28:27;30.50;57.50
67598;DHT22;62026;39.230;9.122;2022-08-01T13:33:46;30.40;57.80
67598;DHT22;62026;39.230;9.122;2022-08-01T13:36:14;30.50;57.80
67598;DHT22;62026;39.230;9.122;2022-08-01T13:38:41;30.60;57.40
67598;DHT22;62026;39.230;9.122;2022-08-01T13:41:27;30.60;57.70
67598;DHT22;62026;39.230;9.122;2022-08-01T13:43:53;30.70;57.40
67598;DHT22;62026;39.230;9.122;2022-08-01T13:46:20;30.70;57.50
67598;DHT22;62026;39.230;9.122;2022-08-01T13:48:46;30.60;57.50
67598;DHT22;62026;39.230;9.122;2022-08-01T13:51:12;30.50;57.70
67598;DHT22;62026;39.230;9.122;2022-08-01T13:53:38;30.40;58.00
67598;DHT22;62026;39.230;9.122;2022-08-01T13:56:04;30.50;57.50
67598;DHT22;62026;39.230;9.122;2022-08-01T13:58:30;30.30;58.10
67598;DHT22;62026;39.230;9.122;2022-08-01T14:00:57;30.40;58.10
67598;DHT22;62026;39.230;9.122;2022-08-01T14:03:23;30.40;58.00
67598;DHT22;62026;39.230;9.122;2022-08-01T14:05:49;30.20;58.30
67598;DHT22;62026;39.230;9.122;2022-08-01T14:08:15;30.20;58.50
67598;DHT22;62026;39.230;9.122;2022-08-01T14:10:41;30.40;58.20
67598;DHT22;62026;39.230;9.122;2022-08-01T14:13:07;30.50;58.30
67598;DHT22;62026;39.230;9.122;2022-08-01T14:15:33;30.40;58.20
67598;DHT22;62026;39.230;9.122;2022-08-01T14:18:00;30.30;58.40
67598;DHT22;62026;39.230;9.122;2022-08-01T14:20:26;30.00;59.00
67598;DHT22;62026;39.230;9.122;2022-08-01T14:22:52;30.00;59.20
67598;DHT22;62026;39.230;9.122;2022-08-01T14:25:18;29.90;59.30
67598;DHT22;62026;39.230;9.122;2022-08-01T14:27:45;29.90;59.50
67598;DHT22;62026;39.230;9.122;2022-08-01T14:30:12;30.10;59.20
67598;DHT22;62026;39.230;9.122;2022-08-01T14:32:38;30.10;59.10
67598;DHT22;62026;39.230;9.122;2022-08-01T14:35:05;30.10;59.70
67598;DHT22;62026;39.230;9.122;2022-08-01T14:37:32;30.10;60.80
67598;DHT22;62026;39.230;9.122;2022-08-01T14:40:00;30.20;61.20
67598;DHT22;62026;39.230;9.122;2022-08-01T14:42:33;30.30;62.10
67598;DHT22;62026;39.230;9.122;2022-08-01T14:44:59;30.30;62.80
67598;DHT22;62026;39.230;9.122;2022-08-01T14:47:25;30.30;62.90
67598;DHT22;62026;39.230;9.122;2022-08-01T14:49:51;30.40;62.60
67598;DHT22;62026;39.230;9.122;2022-08-01T14:52:17;30.20;62.90
67598;DHT22;62026;39.230;9.122;2022-08-01T14:54:45;30.10;63.30
67598;DHT22;62026;39.230;9.122;2022-08-01T14:57:11;30.00;63.80
67598;DHT22;62026;39.230;9.122;2022-08-01T14:59:37;30.10;63.30
67598;DHT22;62026;39.230;9.122;2022-08-01T15:02:03;30.20;62.70
67598;DHT22;62026;39.230;9.122;2022-08-01T15:04:29;30.30;62.80
67598;DHT22;62026;39.230;9.122;2022-08-01T15:06:56;30.30;62.70
67598;DHT22;62026;39.230;9.122;2022-08-01T15:09:22;30.20;62.80
67598;DHT22;62026;39.230;9.122;2022-08-01T15:11:48;30.30;62.70
67598;DHT22;62026;39.230;9.122;2022-08-01T15:14:15;30.30;62.70
67598;DHT22;62026;39.230;9.122;2022-08-01T15:16:59;30.30;62.50
67598;DHT22;62026;39.230;9.122;2022-08-01T15:19:25;30.30;62.80
67598;DHT22;62026;39.230;9.122;2022-08-01T15:21:52;30.20;62.60
67598;DHT22;62026;39.230;9.122;2022-08-01T15:24:18;30.10;63.00
67598;DHT22;62026;39.230;9.122;2022-08-01T15:26:44;30.20;62.60
67598;DHT22;62026;39.230;9.122;2022-08-01T15:29:10;30.30;62.30
67598;DHT22;62026;39.230;9.122;2022-08-01T15:31:39;30.30;62.20
67598;DHT22;62026;39.230;9.122;2022-08-01T15:34:05;30.20;62.30
67598;DHT22;62026;39.230;9.122;2022-08-01T15:36:31;30.20;62.30
67598;DHT22;62026;39.230;9.122;2022-08-01T15:38:57;30.20;62.10
67598;DHT22;62026;39.230;9.122;2022-08-01T15:41:23;30.20;62.30
67598;DHT22;62026;39.230;9.122;2022-08-01T15:43:49;30.10;62.40
67598;DHT22;62026;39.230;9.122;2022-08-01T15:46:15;30.10;62.20
67598;DHT22;62026;39.230;9.122;2022-08-01T15:48:41;30.00;62.30
67598;DHT22;62026;39.230;9.122;2022-08-01T15:51:07;30.10;62.30
67598;DHT22;62026;39.230;9.122;2022-08-01T15:53:33;30.10;62.20
67598;DHT22;62026;39.230;9.122;2022-08-01T15:55:59;30.10;62.20
67598;DHT22;62026;39.230;9.122;2022-08-01T15:58:25;30.10;62.10
67598;DHT22;62026;39.230;9.122;2022-08-01T16:00:52;30.10;62.20
67598;DHT22;62026;39.230;9.122;2022-08-01T16:03:18;30.20;61.80
67598;DHT22;62026;39.230;9.122;2022-08-01T16:05:44;30.20;61.90
67598;DHT22;62026;39.230;9.122;2022-08-01T16:08:13;30.10;62.20
67598;DHT22;62026;39.230;9.122;2022-08-01T16:10:40;30.00;62.10
67598;DHT22;62026;39.230;9.122;2022-08-01T16:13:08;30.00;62.40
67598;DHT22;62026;39.230;9.122;2022-08-01T16:15:35;30.00;62.30
67598;DHT22;62026;39.230;9.122;2022-08-01T16:18:01;29.90;62.60
67598;DHT22;62026;39.230;9.122;2022-08-01T16:20:28;29.80;62.50
67598;DHT22;62026;39.230;9.122;2022-08-01T16:22:54;29.80;62.40
67598;DHT22;62026;39.230;9.122;2022-08-01T16:25:20;29.70;62.50
67598;DHT22;62026;39.230;9.122;2022-08-01T16:27:46;29.70;62.90
67598;DHT22;62026;39.230;9.122;2022-08-01T16:30:12;29.80;62.70
67598;DHT22;62026;39.230;9.122;2022-08-01T16:32:38;29.90;62.10
67598;DHT22;62026;39.230;9.122;2022-08-01T16:35:05;29.80;62.10
67598;DHT22;62026;39.230;9.122;2022-08-01T16:37:31;29.80;61.30